Time;durP1;ratioP1;P1;durP2;ratioP2;P2;SDS_P1;SDS_P2;PMS_P1;PMS_P2;Temp;Humidity;BMP_temperature;BMP_pressure;BME280_temperature;BME280_humidity;BME280_pressure;Samples;Min_cycle;Max_cycle;Signal;HPM_P1;HPM_P2
2023/12/19 00:01:34;;;;;;;2.55;2.30;;;;;;;;;;6209387;23;20136;-89
2023/12/19 00:04:25;;;;;;;2.28;2.15;;;;;;;;;;6208812;23;20516;-87
2023/12/19 00:07:09;;;;;;;2.83;2.55;;;;;;;;;;6121042;23;20102;-88
2023/12/19 00:09:53;;;;;;;2.85;2.65;;;;;;;;;;6196946;22;20077;-87
2023/12/19 00:12:37;;;;;;;4.53;2.63;;;;;;;;;;6283566;22;20014;-88
2023/12/19 00:15:22;;;;;;;3.58;3.10;;;;;;;;;;6283750;22;20457;-86
2023/12/19 00:18:08;;;;;;;2.88;2.67;;;;;;;;;;6283620;22;20069;-89
2023/12/19 00:20:53;;;;;;;4.75;2.88;;;;;;;;;;6306754;22;20061;-86
2023/12/19 00:23:37;;;;;;;3.92;2.90;;;;;;;;;;6283208;22;20118;-87
2023/12/19 00:26:23;;;;;;;4.32;2.80;;;;;;;;;;6283234;22;20061;-86
2023/12/19 00:29:07;;;;;;;3.30;2.97;;;;;;;;;;6283292;22;20437;-87
2023/12/19 00:31:51;;;;;;;3.85;3.00;;;;;;;;;;6283507;22;20489;-87
2023/12/19 00:34:35;;;;;;;4.55;3.58;;;;;;;;;;6283347;22;20088;-86
2023/12/19 00:37:19;;;;;;;5.75;4.53;;;;;;;;;;6278856;22;20390;-86
2023/12/19 00:40:04;;;;;;;3.88;3.47;;;;;;;;;;6306830;22;20352;-87
2023/12/19 00:42:48;;;;;;;4.30;3.90;;;;;;;;;;6283404;22;20509;-85
2023/12/19 00:45:32;;;;;;;8.68;5.80;;;;;;;;;;6283633;22;20053;-88
2023/12/19 00:48:17;;;;;;;7.05;5.65;;;;;;;;;;6306225;22;20019;-86
2023/12/19 00:51:01;;;;;;;4.53;4.10;;;;;;;;;;6282897;22;20068;-87
2023/12/19 00:53:45;;;;;;;7.15;4.40;;;;;;;;;;6306735;22;20017;-88
2023/12/19 00:56:29;;;;;;;4.20;3.80;;;;;;;;;;6282375;22;20088;-88
2023/12/19 00:59:13;;;;;;;5.55;3.42;;;;;;;;;;6306883;22;20069;-87
2023/12/19 01:01:57;;;;;;;6.68;4.65;;;;;;;;;;6306431;22;20471;-90
2023/12/19 01:04:41;;;;;;;8.45;4.65;;;;;;;;;;6283192;22;20046;-89
2023/12/19 01:07:25;;;;;;;6.75;5.00;;;;;;;;;;6283002;22;20472;-86
2023/12/19 01:10:10;;;;;;;6.95;4.35;;;;;;;;;;6208929;22;20028;-86
2023/12/19 01:12:54;;;;;;;5.90;4.43;;;;;;;;;;6148818;23;20044;-88
2023/12/19 01:15:38;;;;;;;5.78;4.20;;;;;;;;;;6148967;23;20044;-87
2023/12/19 01:18:23;;;;;;;4.88;3.88;;;;;;;;;;6149134;23;20075;-88
2023/12/19 01:21:07;;;;;;;5.38;4.15;;;;;;;;;;6149102;23;20075;-91
2023/12/19 01:23:51;;;;;;;8.45;4.60;;;;;;;;;;6149860;23;20052;-88
2023/12/19 01:26:35;;;;;;;5.00;4.00;;;;;;;;;;6149027;23;20024;-87
2023/12/19 01:29:19;;;;;;;3.50;3.20;;;;;;;;;;6148977;23;20020;-87
2023/12/19 01:32:03;;;;;;;3.33;3.00;;;;;;;;;;6149386;23;20091;-90
2023/12/19 01:34:47;;;;;;;3.58;3.25;;;;;;;;;;6149065;23;20021;-88
2023/12/19 01:37:36;;;;;;;3.30;3.00;;;;;;;;;;6149312;23;20336;-88
2023/12/19 01:40:22;;;;;;;4.53;3.70;;;;;;;;;;6149177;23;20483;-87
2023/12/19 01:43:16;;;;;;;4.95;2.70;;;;;;;;;;6149087;23;20151;-88
2023/12/19 01:46:00;;;;;;;3.10;2.80;;;;;;;;;;6148695;23;20097;-86
2023/12/19 01:48:44;;;;;;;3.70;3.00;;;;;;;;;;6149025;23;20044;-89
2023/12/19 01:51:29;;;;;;;3.13;2.85;;;;;;;;;;6150057;23;20020;-87
2023/12/19 01:54:15;;;;;;;3.40;3.05;;;;;;;;;;6149083;23;20024;-88
2023/12/19 01:56:59;;;;;;;3.80;2.95;;;;;;;;;;6148699;23;20020;-89
2023/12/19 01:59:44;;;;;;;4.10;3.70;;;;;;;;;;6147956;23;20542;-88
2023/12/19 02:02:28;;;;;;;4.00;3.17;;;;;;;;;;6148873;23;20075;-88
2023/12/19 02:05:12;;;;;;;3.63;3.30;;;;;;;;;;6148592;23;20020;-86
2023/12/19 02:07:56;;;;;;;4.40;3.63;;;;;;;;;;6148774;23;20094;-90
2023/12/19 02:10:41;;;;;;;6.00;3.65;;;;;;;;;;6148542;23;20091;-87
2023/12/19 02:13:25;;;;;;;3.60;3.30;;;;;;;;;;6150162;23;20079;-87
2023/12/19 02:16:09;;;;;;;3.90;3.42;;;;;;;;;;6148783;23;20517;-88
2023/12/19 02:19:03;;;;;;;3.42;3.10;;;;;;;;;;6148629;23;20064;-87
2023/12/19 02:21:47;;;;;;;3.88;3.47;;;;;;;;;;6148763;23;20032;-87
2023/12/19 02:24:31;;;;;;;3.45;2.88;;;;;;;;;;6148553;23;20056;-87
2023/12/19 02:27:19;;;;;;;4.50;3.40;;;;;;;;;;6149804;23;20040;-86
2023/12/19 02:30:04;;;;;;;4.82;3.53;;;;;;;;;;6149990;23;20320;-88
2023/12/19 02:32:48;;;;;;;5.05;3.17;;;;;;;;;;6148387;23;20521;-87
2023/12/19 02:35:32;;;;;;;4.00;3.50;;;;;;;;;;6148447;23;20032;-87
2023/12/19 02:38:16;;;;;;;5.95;3.00;;;;;;;;;;6150011;23;20071;-86
2023/12/19 02:41:00;;;;;;;3.50;3.20;;;;;;;;;;6148611;23;20477;-87
2023/12/19 02:43:44;;;;;;;5.53;3.85;;;;;;;;;;6148681;23;20112;-86
2023/12/19 02:46:28;;;;;;;4.95;3.25;;;;;;;;;;6149518;23;20028;-86
2023/12/19 02:49:11;;;;;;;5.97;3.63;;;;;;;;;;6148426;23;20067;-88
2023/12/19 02:51:56;;;;;;;4.55;3.50;;;;;;;;;;6149803;23;20099;-88
2023/12/19 02:54:39;;;;;;;6.95;3.40;;;;;;;;;;6149808;23;20017;-90
2023/12/19 02:57:23;;;;;;;3.97;3.47;;;;;;;;;;6148569;23;20021;-88
2023/12/19 03:00:07;;;;;;;5.65;4.07;;;;;;;;;;6148533;23;20024;-87
2023/12/19 03:02:52;;;;;;;4.10;3.70;;;;;;;;;;6149499;23;20071;-88
2023/12/19 03:05:36;;;;;;;4.57;3.55;;;;;;;;;;6148211;23;20025;-88
2023/12/19 03:08:19;;;;;;;4.35;3.63;;;;;;;;;;6148187;23;20020;-86
2023/12/19 03:11:04;;;;;;;4.32;3.80;;;;;;;;;;6289698;22;20076;-87
2023/12/19 03:13:47;;;;;;;6.00;3.75;;;;;;;;;;6307687;22;20026;-87
2023/12/19 03:16:32;;;;;;;4.63;3.72;;;;;;;;;;6307526;22;20464;-86
2023/12/19 03:19:16;;;;;;;4.53;3.95;;;;;;;;;;6285203;22;20022;-87
2023/12/19 03:22:00;;;;;;;5.32;3.53;;;;;;;;;;6284863;22;20060;-87
2023/12/19 03:24:44;;;;;;;5.78;3.58;;;;;;;;;;6284752;22;20022;-89
2023/12/19 03:27:28;;;;;;;5.53;4.32;;;;;;;;;;6284288;22;20030;-86
2023/12/19 03:30:12;;;;;;;4.80;3.78;;;;;;;;;;6283920;22;20018;-86
2023/12/19 03:32:56;;;;;;;3.50;3.20;;;;;;;;;;6284136;22;20046;-88
2023/12/19 03:35:40;;;;;;;3.50;3.20;;;;;;;;;;6284511;22;20118;-87
2023/12/19 03:38:24;;;;;;;3.47;3.08;;;;;;;;;;6284594;22;20496;-87
2023/12/19 03:41:08;;;;;;;4.10;2.75;;;;;;;;;;6284090;22;20465;-86
2023/12/19 03:43:52;;;;;;;3.13;2.72;;;;;;;;;;6284191;22;20057;-86
2023/12/19 03:46:35;;;;;;;3.95;3.03;;;;;;;;;;6307004;22;20053;-87
2023/12/19 03:49:20;;;;;;;3.63;2.47;;;;;;;;;;6284232;22;20022;-88
2023/12/19 03:52:03;;;;;;;5.53;3.28;;;;;;;;;;6284042;22;20098;-86
2023/12/19 03:54:48;;;;;;;3.47;2.53;;;;;;;;;;6284138;22;20022;-87
2023/12/19 03:57:31;;;;;;;;;;;;;;;;;;6284669;22;20329;-87
2023/12/19 04:00:18;;;;;;;3.42;2.58;;;;;;;;;;6284284;22;19949;-87
2023/12/19 04:03:02;;;;;;;4.75;2.70;;;;;;;;;;6284219;22;20015;-87
2023/12/19 04:05:45;;;;;;;3.28;2.80;;;;;;;;;;6307208;22;20018;-86
2023/12/19 04:08:29;;;;;;;3.47;2.72;;;;;;;;;;6283810;22;20349;-86
2023/12/19 04:11:15;;;;;;;4.25;2.88;;;;;;;;;;6153832;22;20402;-87
2023/12/19 04:13:59;;;;;;;3.72;2.50;;;;;;;;;;6149204;23;20067;-87
2023/12/19 04:16:43;;;;;;;3.58;2.97;;;;;;;;;;6150676;23;20020;-88
2023/12/19 04:19:27;;;;;;;4.15;3.17;;;;;;;;;;6149306;23;20105;-86
2023/12/19 04:22:11;;;;;;;3.88;3.10;;;;;;;;;;6150392;23;20449;-87
2023/12/19 04:24:55;;;;;;;5.05;3.20;;;;;;;;;;6148967;23;20352;-86
2023/12/19 04:27:39;;;;;;;4.03;3.20;;;;;;;;;;6149386;23;20074;-85
2023/12/19 04:30:23;;;;;;;4.05;2.92;;;;;;;;;;6148908;23;20040;-85
2023/12/19 04:33:07;;;;;;;3.97;3.20;;;;;;;;;;6149302;23;20032;-86
2023/12/19 04:35:51;;;;;;;4.82;3.70;;;;;;;;;;6149682;23;20025;-88
2023/12/19 04:38:35;;;;;;;5.38;3.78;;;;;;;;;;6149823;23;20052;-87
2023/12/19 04:41:19;;;;;;;7.90;3.97;;;;;;;;;;6149946;23;20064;-89
2023/12/19 04:44:03;;;;;;;5.35;3.05;;;;;;;;;;6149734;23;20040;-88
2023/12/19 04:46:47;;;;;;;5.18;3.70;;;;;;;;;;6150865;23;20071;-89
2023/12/19 04:49:31;;;;;;;7.25;4.68;;;;;;;;;;6149997;23;20016;-86
2023/12/19 04:52:15;;;;;;;8.88;6.18;;;;;;;;;;6151265;23;20017;-87
2023/12/19 04:54:59;;;;;;;10.25;6.43;;;;;;;;;;6150857;23;20064;-86
2023/12/19 04:57:43;;;;;;;9.00;7.22;;;;;;;;;;6149875;23;20186;-88
2023/12/19 05:00:27;;;;;;;9.52;7.10;;;;;;;;;;6149602;23;20025;-88
2023/12/19 05:03:11;;;;;;;9.63;6.68;;;;;;;;;;6149634;23;20530;-90
2023/12/19 05:05:55;;;;;;;9.60;6.07;;;;;;;;;;6150856;23;20020;-89
2023/12/19 05:08:39;;;;;;;9.20;6.65;;;;;;;;;;6149523;23;20020;-88
2023/12/19 05:11:23;;;;;;;10.18;6.25;;;;;;;;;;6149770;23;20101;-88
2023/12/19 05:14:08;;;;;;;10.10;6.40;;;;;;;;;;6149186;23;20015;-90
2023/12/19 05:16:52;;;;;;;11.57;5.88;;;;;;;;;;6149624;23;20383;-88
2023/12/19 05:19:36;;;;;;;7.32;6.30;;;;;;;;;;6150717;23;20413;-86
2023/12/19 05:22:20;;;;;;;8.30;5.35;;;;;;;;;;6149022;23;20024;-88
2023/12/19 05:25:05;;;;;;;7.45;5.57;;;;;;;;;;6149281;23;20079;-86
2023/12/19 05:27:49;;;;;;;9.05;5.60;;;;;;;;;;6149173;23;20025;-88
2023/12/19 05:30:33;;;;;;;6.13;4.72;;;;;;;;;;6149595;23;20096;-87
2023/12/19 05:33:17;;;;;;;6.30;4.88;;;;;;;;;;6149250;23;20028;-87
2023/12/19 05:36:02;;;;;;;6.65;4.85;;;;;;;;;;6148730;23;20016;-89
2023/12/19 05:38:46;;;;;;;6.97;4.30;;;;;;;;;;6150901;23;20344;-87
2023/12/19 05:41:35;;;;;;;5.72;5.07;;;;;;;;;;6150518;23;20088;-86
2023/12/19 05:44:19;;;;;;;8.30;4.25;;;;;;;;;;6148774;23;20070;-87
2023/12/19 05:47:03;;;;;;;7.35;4.72;;;;;;;;;;6148767;23;20043;-86
2023/12/19 05:49:47;;;;;;;6.07;4.97;;;;;;;;;;6150200;23;20059;-86
2023/12/19 05:52:31;;;;;;;4.90;4.50;;;;;;;;;;6149916;23;20017;-88
2023/12/19 05:55:15;;;;;;;6.05;5.45;;;;;;;;;;6149646;23;20470;-85
2023/12/19 05:57:59;;;;;;;10.57;5.75;;;;;;;;;;6148561;23;20020;-88
2023/12/19 06:00:45;;;;;;;8.98;6.47;;;;;;;;;;6149825;23;20101;-86
2023/12/19 06:03:29;;;;;;;8.70;6.75;;;;;;;;;;6148761;23;20048;-86
2023/12/19 06:06:13;;;;;;;7.38;6.63;;;;;;;;;;6148518;23;20025;-87
2023/12/19 06:08:57;;;;;;;9.75;6.13;;;;;;;;;;6152634;22;20102;-89
2023/12/19 06:11:41;;;;;;;10.23;6.22;;;;;;;;;;6282788;22;20052;-86
2023/12/19 06:14:25;;;;;;;9.05;6.40;;;;;;;;;;6282895;22;20065;-85
2023/12/19 06:17:09;;;;;;;6.63;5.93;;;;;;;;;;6282952;22;20505;-86
2023/12/19 06:19:53;;;;;;;9.32;6.00;;;;;;;;;;6283129;22;20029;-86
2023/12/19 06:22:38;;;;;;;7.25;6.35;;;;;;;;;;6282932;22;20102;-87
2023/12/19 06:25:22;;;;;;;7.13;6.03;;;;;;;;;;6283308;22;20022;-85
2023/12/19 06:28:07;;;;;;;8.27;5.65;;;;;;;;;;6282877;22;20104;-87
2023/12/19 06:30:53;;;;;;;7.35;5.68;;;;;;;;;;6306149;22;20018;-87
2023/12/19 06:33:37;;;;;;;9.15;6.20;;;;;;;;;;6306455;22;20357;-87
2023/12/19 06:36:31;;;;;;;6.00;5.40;;;;;;;;;;6283484;22;20046;-87
2023/12/19 06:39:15;;;;;;;7.93;5.50;;;;;;;;;;6283275;22;20014;-87
2023/12/19 06:41:59;;;;;;;7.82;5.60;;;;;;;;;;6282778;22;20010;-87
2023/12/19 06:44:43;;;;;;;10.85;5.85;;;;;;;;;;6282653;22;20337;-88
2023/12/19 06:47:28;;;;;;;5.68;5.18;;;;;;;;;;6283752;22;20341;-87
2023/12/19 06:50:12;;;;;;;8.73;5.40;;;;;;;;;;6284903;22;20022;-87
2023/12/19 06:52:55;;;;;;;5.55;5.00;;;;;;;;;;6307928;22;20061;-87
2023/12/19 06:55:39;;;;;;;6.22;4.90;;;;;;;;;;6284778;22;20049;-88
2023/12/19 06:58:23;;;;;;;5.72;5.22;;;;;;;;;;6284820;22;20431;-86
2023/12/19 07:01:07;;;;;;;8.70;5.60;;;;;;;;;;6284130;22;20033;-87
2023/12/19 07:03:51;;;;;;;11.38;6.13;;;;;;;;;;6307948;22;20034;-88
2023/12/19 07:06:35;;;;;;;7.85;6.90;;;;;;;;;;6308106;22;20500;-87
2023/12/19 07:09:19;;;;;;;10.55;6.60;;;;;;;;;;6307539;22;20491;-87
2023/12/19 07:12:03;;;;;;;7.88;6.65;;;;;;;;;;6308237;22;20468;-87
2023/12/19 07:14:47;;;;;;;8.48;6.35;;;;;;;;;;6285126;22;20014;-88
2023/12/19 07:17:31;;;;;;;7.50;6.40;;;;;;;;;;6285042;22;20029;-89
2023/12/19 07:20:15;;;;;;;6.53;5.95;;;;;;;;;;6284985;22;20022;-85
2023/12/19 07:22:59;;;;;;;7.05;6.30;;;;;;;;;;6285529;22;20022;-88
2023/12/19 07:25:43;;;;;;;11.63;6.57;;;;;;;;;;6285391;22;20064;-86
2023/12/19 07:28:27;;;;;;;8.50;6.28;;;;;;;;;;6285171;22;20018;-87
2023/12/19 07:31:18;;;;;;;7.00;6.28;;;;;;;;;;6284907;22;20018;-87
2023/12/19 07:34:06;;;;;;;8.35;5.80;;;;;;;;;;6285289;22;20511;-88
2023/12/19 07:36:53;;;;;;;8.80;5.85;;;;;;;;;;6285127;22;20018;-88
2023/12/19 07:39:37;;;;;;;9.57;5.43;;;;;;;;;;6284993;22;20065;-87
2023/12/19 07:42:22;;;;;;;8.80;6.00;;;;;;;;;;6285191;22;20077;-85
2023/12/19 07:45:06;;;;;;;13.68;6.25;;;;;;;;;;6308363;22;20529;-87
2023/12/19 07:47:52;;;;;;;6.22;5.60;;;;;;;;;;6307760;22;20745;-87
2023/12/19 07:50:36;;;;;;;7.65;5.20;;;;;;;;;;6284806;22;20073;-86
2023/12/19 07:53:22;;;;;;;7.28;5.85;;;;;;;;;;6307361;22;20049;-89
2023/12/19 07:56:07;;;;;;;6.43;5.82;;;;;;;;;;6284195;22;20096;-86
2023/12/19 07:58:51;;;;;;;8.02;5.57;;;;;;;;;;6284963;22;20070;-86
2023/12/19 08:01:36;;;;;;;8.75;4.97;;;;;;;;;;6285012;22;20049;-86
2023/12/19 08:04:20;;;;;;;7.85;5.53;;;;;;;;;;6283464;22;20025;-86
2023/12/19 08:07:04;;;;;;;6.95;5.32;;;;;;;;;;6308449;22;20086;-88
2023/12/19 08:09:47;;;;;;;8.38;6.40;;;;;;;;;;6227974;22;20482;-85
2023/12/19 08:12:32;;;;;;;6.22;5.53;;;;;;;;;;6151044;23;20067;-87
2023/12/19 08:15:17;;;;;;;7.68;5.57;;;;;;;;;;6150328;23;20016;-86
2023/12/19 08:18:00;;;;;;;7.93;5.10;;;;;;;;;;6149775;23;20056;-85
2023/12/19 08:20:45;;;;;;;10.45;5.50;;;;;;;;;;6151044;23;20051;-89
2023/12/19 08:23:30;;;;;;;8.85;5.68;;;;;;;;;;6156237;23;20020;-87
2023/12/19 08:26:23;;;;;;;11.50;5.50;;;;;;;;;;6149280;23;20027;-83
2023/12/19 08:29:14;;;;;;;10.63;5.50;;;;;;;;;;6151431;23;20044;-87
2023/12/19 08:31:59;;;;;;;8.45;5.85;;;;;;;;;;6149509;23;20406;-88
2023/12/19 08:34:43;;;;;;;6.95;5.20;;;;;;;;;;6150109;23;20035;-90
2023/12/19 08:37:28;;;;;;;6.90;5.70;;;;;;;;;;6150445;23;20020;-89
2023/12/19 08:44:01;;;;;;;7.97;5.88;;;;;;;;;;6151110;23;20339;-87
2023/12/19 08:46:45;;;;;;;10.07;6.20;;;;;;;;;;6147981;23;20021;-87
2023/12/19 08:49:29;;;;;;;6.43;5.82;;;;;;;;;;6148780;23;20071;-88
2023/12/19 08:52:13;;;;;;;5.32;4.35;;;;;;;;;;6150064;23;20398;-88
2023/12/19 08:54:57;;;;;;;6.47;5.03;;;;;;;;;;6148584;23;20066;-87
2023/12/19 08:57:42;;;;;;;9.70;4.80;;;;;;;;;;6148812;23;20021;-82
2023/12/19 09:00:29;;;;;;;5.88;4.00;;;;;;;;;;6147397;23;20025;-82
2023/12/19 09:03:14;;;;;;;4.80;4.18;;;;;;;;;;6146866;23;20341;-82
2023/12/19 09:05:58;;;;;;;6.97;3.90;;;;;;;;;;6146763;23;20021;-83
2023/12/19 09:08:42;;;;;;;2.88;2.60;;;;;;;;;;6149032;23;20096;-82
2023/12/19 09:11:26;;;;;;;3.28;1.63;;;;;;;;;;6147051;23;20060;-82
2023/12/19 09:14:13;;;;;;;1.88;1.60;;;;;;;;;;6147446;23;20451;-82
2023/12/19 09:17:01;;;;;;;2.15;1.50;;;;;;;;;;6148802;23;20024;-82
2023/12/19 09:19:45;;;;;;;1.60;1.50;;;;;;;;;;6147378;23;20101;-82
2023/12/19 09:22:28;;;;;;;3.25;1.50;;;;;;;;;;6148752;23;20060;-81
2023/12/19 09:25:15;;;;;;;1.98;1.42;;;;;;;;;;6149031;23;20063;-82
2023/12/19 09:27:59;;;;;;;2.25;1.70;;;;;;;;;;6148095;23;20020;-82
2023/12/19 09:30:43;;;;;;;1.90;1.80;;;;;;;;;;6149525;23;20063;-82
2023/12/19 09:33:28;;;;;;;2.05;1.95;;;;;;;;;;6147525;23;20020;-83
2023/12/19 09:36:18;;;;;;;2.47;2.08;;;;;;;;;;6148905;23;20060;-83
2023/12/19 09:39:03;;;;;;;1.85;1.73;;;;;;;;;;6147906;23;20020;-82
2023/12/19 09:41:49;;;;;;;2.60;1.70;;;;;;;;;;6148102;23;20067;-82
2023/12/19 09:44:33;;;;;;;1.67;1.52;;;;;;;;;;6148997;23;20094;-82
2023/12/19 09:47:23;;;;;;;2.33;1.50;;;;;;;;;;6147538;23;20044;-82
2023/12/19 09:50:11;;;;;;;1.77;1.40;;;;;;;;;;6149124;23;20020;-82
2023/12/19 09:52:57;;;;;;;3.42;1.55;;;;;;;;;;6148961;23;20089;-81
2023/12/19 09:55:44;;;;;;;1.60;1.50;;;;;;;;;;6147331;23;20059;-81
2023/12/19 09:58:28;;;;;;;1.42;1.40;;;;;;;;;;6147845;23;20039;-82
2023/12/19 10:01:12;;;;;;;1.67;1.58;;;;;;;;;;6149048;23;20028;-82
2023/12/19 10:03:56;;;;;;;1.83;1.65;;;;;;;;;;6147555;23;20115;-82
2023/12/19 10:07:00;;;;;;;1.50;1.40;;;;;;;;;;6148868;23;20020;-81
2023/12/19 10:09:51;;;;;;;2.25;1.38;;;;;;;;;;6203428;22;20072;-82
2023/12/19 10:12:47;;;;;;;1.60;1.50;;;;;;;;;;6281752;22;20185;-82
2023/12/19 10:15:31;;;;;;;2.83;1.90;;;;;;;;;;6304731;22;20011;-82
2023/12/19 10:18:15;;;;;;;2.63;1.83;;;;;;;;;;6281617;22;20018;-82
2023/12/19 10:21:08;;;;;;;5.75;2.03;;;;;;;;;;6281532;22;20472;-82
2023/12/19 10:23:51;;;;;;;3.50;1.80;;;;;;;;;;6304606;22;20499;-81
2023/12/19 10:26:36;;;;;;;7.97;2.10;;;;;;;;;;6304495;22;20026;-81
2023/12/19 10:29:23;;;;;;;6.22;2.08;;;;;;;;;;6281843;22;20384;-82
2023/12/19 10:32:19;;;;;;;6.32;2.10;;;;;;;;;;6304199;22;20058;-81
2023/12/19 10:35:03;;;;;;;2.95;1.63;;;;;;;;;;6281307;22;20505;-82
2023/12/19 10:37:47;;;;;;;4.20;1.98;;;;;;;;;;6304933;22;20037;-82
2023/12/19 10:40:31;;;;;;;2.65;1.80;;;;;;;;;;6304922;22;20519;-82
2023/12/19 10:43:15;;;;;;;6.25;2.00;;;;;;;;;;6304729;22;20022;-82
2023/12/19 10:45:59;;;;;;;3.92;1.92;;;;;;;;;;6304394;22;20384;-82
2023/12/19 10:48:43;;;;;;;4.15;2.75;;;;;;;;;;6281394;22;20053;-82
2023/12/19 10:51:39;;;;;;;6.72;2.10;;;;;;;;;;6304712;22;20342;-82
2023/12/19 10:54:25;;;;;;;7.50;2.10;;;;;;;;;;6304815;22;20017;-82
2023/12/19 10:57:18;;;;;;;9.50;2.53;;;;;;;;;;6304248;22;20049;-82
2023/12/19 11:00:11;;;;;;;4.82;2.47;;;;;;;;;;6304220;22;20084;-82
2023/12/19 11:03:14;;;;;;;6.78;2.90;;;;;;;;;;6304271;22;20022;-82
2023/12/19 11:05:58;;;;;;;8.20;2.97;;;;;;;;;;6281685;22;20084;-81
2023/12/19 11:08:46;;;;;;;4.45;2.50;;;;;;;;;;6304733;22;20337;-81
2023/12/19 11:11:32;;;;;;;5.18;2.33;;;;;;;;;;6304574;22;20026;-82
2023/12/19 11:14:18;;;;;;;4.57;2.58;;;;;;;;;;6280767;22;20115;-82
2023/12/19 11:17:09;;;;;;;5.55;2.70;;;;;;;;;;6304113;22;20018;-82
2023/12/19 11:19:56;;;;;;;7.57;2.75;;;;;;;;;;6304506;22;20076;-82
2023/12/19 11:22:52;;;;;;;8.65;2.60;;;;;;;;;;6304570;22;20054;-81
2023/12/19 11:25:38;;;;;;;7.38;3.00;;;;;;;;;;6281463;22;20018;-82
2023/12/19 11:28:24;;;;;;;8.15;3.22;;;;;;;;;;6304262;22;20022;-81
2023/12/19 11:31:27;;;;;;;6.90;3.05;;;;;;;;;;6280934;22;20525;-82
2023/12/19 11:34:24;;;;;;;7.30;3.13;;;;;;;;;;6306011;22;20033;-81
2023/12/19 11:37:08;;;;;;;7.10;2.95;;;;;;;;;;6283026;22;20065;-83
2023/12/19 11:39:55;;;;;;;7.28;3.10;;;;;;;;;;6306026;22;20026;-81
2023/12/19 11:42:39;;;;;;;9.52;3.00;;;;;;;;;;6306144;22;20352;-82
2023/12/19 11:45:22;;;;;;;19.05;3.15;;;;;;;;;;6282427;22;20098;-82
2023/12/19 11:48:27;;;;;;;8.95;3.42;;;;;;;;;;6306352;22;20106;-81
2023/12/19 11:51:11;;;;;;;11.23;3.20;;;;;;;;;;6306358;22;20102;-83
2023/12/19 11:53:55;;;;;;;11.68;3.58;;;;;;;;;;6283199;22;20065;-82
2023/12/19 11:56:40;;;;;;;12.73;3.75;;;;;;;;;;6282831;22;20017;-82
2023/12/19 11:59:24;;;;;;;10.52;3.25;;;;;;;;;;6282477;22;20064;-82
2023/12/19 12:02:08;;;;;;;9.70;3.20;;;;;;;;;;6306065;22;20027;-82
2023/12/19 12:05:17;;;;;;;11.82;3.60;;;;;;;;;;6306279;22;20030;-82
2023/12/19 12:08:01;;;;;;;13.00;4.00;;;;;;;;;;6305786;22;20045;-81
2023/12/19 12:10:59;;;;;;;14.60;4.57;;;;;;;;;;6177250;22;20032;-82
2023/12/19 12:13:58;;;;;;;11.90;3.67;;;;;;;;;;6149009;23;20063;-82
2023/12/19 12:16:42;;;;;;;9.63;3.67;;;;;;;;;;6148326;23;20101;-82
2023/12/19 12:19:26;;;;;;;13.20;3.95;;;;;;;;;;6149508;23;20090;-81
2023/12/19 12:22:12;;;;;;;17.23;4.18;;;;;;;;;;6149433;23;20020;-82
2023/12/19 12:24:57;;;;;;;16.05;3.80;;;;;;;;;;6148042;23;20025;-82
2023/12/19 12:27:40;;;;;;;17.27;4.53;;;;;;;;;;6147913;23;20467;-82
2023/12/19 12:30:25;;;;;;;13.43;3.60;;;;;;;;;;6149265;23;20083;-81
2023/12/19 12:33:09;;;;;;;10.65;3.80;;;;;;;;;;6148042;23;20052;-82
2023/12/19 12:35:56;;;;;;;12.88;3.85;;;;;;;;;;6148064;23;20531;-82
2023/12/19 12:38:40;;;;;;;12.98;3.83;;;;;;;;;;6148296;23;20071;-82
2023/12/19 12:41:24;;;;;;;12.77;3.60;;;;;;;;;;6149260;23;20079;-82
2023/12/19 12:44:12;;;;;;;16.05;3.75;;;;;;;;;;6148686;23;20096;-82
2023/12/19 12:46:57;;;;;;;11.32;3.67;;;;;;;;;;6149017;23;20091;-82
2023/12/19 12:49:40;;;;;;;11.75;3.78;;;;;;;;;;6149427;23;20457;-81
2023/12/19 12:52:25;;;;;;;13.43;4.00;;;;;;;;;;6149593;23;20024;-82
2023/12/19 12:55:12;;;;;;;13.32;4.10;;;;;;;;;;6147792;23;20475;-82
2023/12/19 12:58:02;;;;;;;12.43;3.50;;;;;;;;;;6147882;23;20781;-81
2023/12/19 13:00:46;;;;;;;11.57;4.03;;;;;;;;;;6148250;23;20055;-82
2023/12/19 13:03:32;;;;;;;15.45;4.25;;;;;;;;;;6148019;23;20023;-81
2023/12/19 13:06:16;;;;;;;20.55;4.35;;;;;;;;;;6149042;23;20020;-82
2023/12/19 13:09:00;;;;;;;11.35;3.60;;;;;;;;;;6155916;22;20574;-82
2023/12/19 13:11:44;;;;;;;14.68;3.90;;;;;;;;;;6282150;22;20018;-82
2023/12/19 13:14:28;;;;;;;12.75;3.80;;;;;;;;;;6305089;22;20345;-81
2023/12/19 13:17:12;;;;;;;19.05;4.05;;;;;;;;;;6282526;22;20044;-82
2023/12/19 13:19:56;;;;;;;12.63;3.85;;;;;;;;;;6282213;22;20072;-81
2023/12/19 13:22:41;;;;;;;15.70;3.10;;;;;;;;;;6282039;22;20026;-81
2023/12/19 13:25:27;;;;;;;15.50;3.50;;;;;;;;;;6305590;22;20053;-82
2023/12/19 13:28:10;;;;;;;20.50;3.88;;;;;;;;;;6305229;22;20073;-83
2023/12/19 13:31:03;;;;;;;13.02;3.33;;;;;;;;;;6306315;22;20021;-82
2023/12/19 13:33:47;;;;;;;17.13;3.50;;;;;;;;;;6305381;22;20072;-81
2023/12/19 13:36:31;;;;;;;22.88;3.35;;;;;;;;;;6304683;22;20398;-82
2023/12/19 13:39:20;;;;;;;11.15;3.38;;;;;;;;;;6305350;22;20014;-81
2023/12/19 13:42:05;;;;;;;10.40;2.70;;;;;;;;;;6282009;22;20341;-81
2023/12/19 13:44:49;;;;;;;13.43;3.30;;;;;;;;;;6281974;22;20014;-82
2023/12/19 13:47:33;;;;;;;11.63;3.28;;;;;;;;;;6304863;22;20408;-83
2023/12/19 13:50:17;;;;;;;9.27;2.75;;;;;;;;;;6281941;22;20887;-82
2023/12/19 13:53:01;;;;;;;13.32;3.10;;;;;;;;;;6304849;22;20437;-82
2023/12/19 13:55:45;;;;;;;17.40;3.08;;;;;;;;;;6304678;22;20015;-81
2023/12/19 13:58:30;;;;;;;8.52;2.53;;;;;;;;;;6281567;22;20022;-82
2023/12/19 14:01:14;;;;;;;13.40;3.13;;;;;;;;;;6282072;22;20101;-82
2023/12/19 14:03:58;;;;;;;13.13;2.70;;;;;;;;;;6304957;22;20050;-82
2023/12/19 14:06:45;;;;;;;13.57;4.15;;;;;;;;;;6281711;22;20487;-81
2023/12/19 14:09:31;;;;;;;13.95;3.72;;;;;;;;;;6281164;22;20068;-81
2023/12/19 14:12:15;;;;;;;16.95;4.03;;;;;;;;;;6305292;22;20057;-82
2023/12/19 14:14:59;;;;;;;10.00;3.00;;;;;;;;;;6281447;22;20050;-82
2023/12/19 14:17:43;;;;;;;11.35;2.75;;;;;;;;;;6304897;22;20334;-81
2023/12/19 14:20:31;;;;;;;14.93;3.25;;;;;;;;;;6281475;22;20021;-81
2023/12/19 14:23:15;;;;;;;16.88;4.90;;;;;;;;;;6304520;22;20065;-81
2023/12/19 14:25:59;;;;;;;12.90;3.00;;;;;;;;;;6281319;22;20070;-81
2023/12/19 14:28:42;;;;;;;16.85;3.03;;;;;;;;;;6281623;22;20472;-81
2023/12/19 14:31:27;;;;;;;17.88;3.83;;;;;;;;;;6281653;22;20014;-82
2023/12/19 14:34:11;;;;;;;11.15;2.65;;;;;;;;;;6304996;22;20022;-81
2023/12/19 14:36:54;;;;;;;13.88;3.75;;;;;;;;;;6280925;22;20514;-82
2023/12/19 14:39:39;;;;;;;20.60;3.45;;;;;;;;;;6281142;22;20038;-81
2023/12/19 14:42:26;;;;;;;14.48;3.35;;;;;;;;;;6304841;22;20072;-82
2023/12/19 14:45:10;;;;;;;9.35;2.95;;;;;;;;;;6304437;22;20023;-82
2023/12/19 14:47:56;;;;;;;16.13;3.75;;;;;;;;;;6281262;22;20042;-82
2023/12/19 14:50:40;;;;;;;14.60;3.22;;;;;;;;;;6281816;22;20041;-81
2023/12/19 14:53:24;;;;;;;19.40;3.83;;;;;;;;;;6281019;22;20018;-82
2023/12/19 14:56:08;;;;;;;14.13;3.67;;;;;;;;;;6304522;22;20106;-81
2023/12/19 14:58:55;;;;;;;12.75;4.15;;;;;;;;;;6281306;22;20023;-81
2023/12/19 15:01:39;;;;;;;9.45;3.20;;;;;;;;;;6281315;22;20061;-82
2023/12/19 15:04:24;;;;;;;7.95;2.88;;;;;;;;;;6304527;22;20062;-82
2023/12/19 15:07:08;;;;;;;9.95;3.00;;;;;;;;;;6281561;22;20096;-82
2023/12/19 15:09:52;;;;;;;10.13;2.80;;;;;;;;;;6223278;22;20032;-82
2023/12/19 15:12:37;;;;;;;16.40;4.75;;;;;;;;;;6148786;23;20044;-82
2023/12/19 15:15:21;;;;;;;19.60;4.93;;;;;;;;;;6149783;23;20039;-82
2023/12/19 15:18:06;;;;;;;9.27;4.47;;;;;;;;;;6148330;23;20024;-82
2023/12/19 15:20:50;;;;;;;16.98;3.35;;;;;;;;;;6149182;23;20485;-82
2023/12/19 15:23:33;;;;;;;11.65;2.53;;;;;;;;;;6149581;23;20021;-82
2023/12/19 15:26:18;;;;;;;15.98;3.55;;;;;;;;;;6149629;23;20066;-81
2023/12/19 15:29:01;;;;;;;11.23;2.85;;;;;;;;;;6148662;23;20025;-82
2023/12/19 15:31:46;;;;;;;10.48;2.97;;;;;;;;;;6149876;23;20344;-88
2023/12/19 15:37:54;;;;;;;15.15;3.20;;;;;;;;;;6150824;23;20068;-86
2023/12/19 15:40:47;;;;;;;13.00;2.92;;;;;;;;;;6149776;23;20021;-88
2023/12/19 15:43:31;;;;;;;14.02;3.33;;;;;;;;;;6149343;23;20148;-87
2023/12/19 15:46:14;;;;;;;11.85;3.20;;;;;;;;;;6149171;23;20772;-85
2023/12/19 15:49:00;;;;;;;13.60;2.88;;;;;;;;;;6150275;23;20520;-86
2023/12/19 15:51:47;;;;;;;9.23;2.90;;;;;;;;;;6148810;23;20462;-88
2023/12/19 15:54:30;;;;;;;12.50;3.15;;;;;;;;;;6151332;23;20016;-88
2023/12/19 15:57:15;;;;;;;15.35;4.40;;;;;;;;;;6150486;23;20063;-86
2023/12/19 15:59:59;;;;;;;17.85;4.25;;;;;;;;;;6150050;23;20071;-86
2023/12/19 16:02:43;;;;;;;12.43;3.17;;;;;;;;;;6149893;23;20025;-87
2023/12/19 16:05:27;;;;;;;8.30;3.03;;;;;;;;;;6149864;23;20056;-87
2023/12/19 16:08:18;;;;;;;13.63;3.30;;;;;;;;;;6150933;23;20029;-88
2023/12/19 16:11:02;;;;;;;10.98;3.30;;;;;;;;;;6151218;22;20109;-88
2023/12/19 16:13:47;;;;;;;19.15;4.75;;;;;;;;;;6147648;23;20127;-88
2023/12/19 16:16:36;;;;;;;15.57;4.15;;;;;;;;;;6149662;23;20037;-88
2023/12/19 16:19:20;;;;;;;16.60;4.45;;;;;;;;;;6151637;23;20021;-89
2023/12/19 16:22:04;;;;;;;13.70;3.92;;;;;;;;;;6149113;23;20020;-88
2023/12/19 16:24:52;;;;;;;16.27;3.83;;;;;;;;;;6150109;23;20468;-84
2023/12/19 16:27:36;;;;;;;11.75;3.53;;;;;;;;;;6151251;23;20074;-88
2023/12/19 16:30:21;;;;;;;14.02;3.97;;;;;;;;;;6152755;23;20020;-86
2023/12/19 16:47:49;;;;;;;11.75;3.35;;;;;;;;;;6153660;23;20059;-83